createdAt,value
2019-05-06T00:00:04.775Z,71.42
2019-05-06T00:01:08.686Z,70.67
2019-05-06T00:02:13.797Z,69.88
2019-05-06T00:03:16.981Z,69.60
2019-05-06T00:04:21.152Z,69.39
2019-05-06T00:05:25.757Z,69.85
2019-05-06T00:06:29.540Z,69.47
2019-05-06T00:07:34.029Z,70.06
2019-05-06T00:08:37.965Z,69.37
2019-05-06T00:09:44.081Z,69.57
2019-05-06T00:10:46.352Z,70.97
2019-05-06T00:11:50.525Z,70.11
2019-05-06T00:12:54.712Z,70.31
2019-05-06T00:13:58.911Z,70.53
2019-05-06T00:15:03.948Z,69.41
2019-05-06T00:16:07.323Z,69.92
2019-05-06T00:17:11.473Z,69.78
2019-05-06T00:18:15.671Z,69.28
2019-05-06T00:19:19.825Z,69.51
2019-05-06T00:20:24.440Z,69.37
2019-05-06T00:21:28.198Z,69.14
2019-05-06T00:22:34.332Z,70.43
2019-05-06T00:23:38.227Z,69.40
2019-05-06T00:24:40.743Z,69.39
2019-05-06T00:25:44.992Z,69.69
2019-05-06T00:26:49.074Z,70.23
2019-05-06T00:27:54.408Z,69.36
2019-05-06T00:28:57.507Z,69.54
2019-05-06T00:30:04.321Z,69.30
2019-05-06T00:31:12.690Z,69.35
2019-05-06T00:32:09.999Z,69.22
2019-05-06T00:33:14.150Z,70.36
2019-05-06T00:34:18.309Z,70.15
2019-05-06T00:35:23.468Z,70.29
2019-05-06T00:36:26.706Z,70.99
2019-05-06T00:37:30.872Z,70.02
2019-05-06T00:38:35.073Z,70.90
2019-05-06T00:39:39.220Z,69.88
2019-05-06T00:40:43.703Z,71.36
2019-05-06T00:41:47.569Z,70.68
2019-05-06T00:42:51.748Z,70.12
2019-05-06T00:43:55.919Z,71.24
2019-05-06T00:45:00.070Z,70.59
2019-05-06T00:46:04.811Z,70.42
2019-05-06T00:47:08.395Z,70.53
2019-05-06T00:48:13.989Z,70.99
2019-05-06T00:49:16.770Z,70.44
2019-05-06T00:50:21.067Z,71.80
2019-05-06T00:51:25.168Z,72.28
2019-05-06T00:52:29.314Z,72.59
2019-05-06T00:53:34.746Z,71.45
2019-05-06T00:54:37.650Z,72.10
2019-05-06T00:55:41.834Z,72.76
2019-05-06T00:56:45.997Z,72.06
2019-05-06T00:57:50.117Z,71.34
2019-05-06T00:58:54.516Z,70.86
2019-05-06T00:59:58.496Z,71.28
2019-05-06T01:01:04.573Z,70.52
2019-05-06T01:02:06.831Z,70.33
2019-05-06T01:03:10.987Z,71.59
2019-05-06T01:04:15.157Z,71.85
2019-05-06T01:05:19.360Z,71.25
2019-05-06T01:06:24.696Z,70.72
2019-05-06T01:07:27.809Z,71.73
2019-05-06T01:08:31.912Z,71.08
2019-05-06T01:09:36.104Z,71.95
2019-05-06T01:10:40.244Z,71.63
2019-05-06T01:11:44.901Z,72.38
2019-05-06T01:12:48.588Z,71.73
2019-05-06T01:13:54.501Z,72.26
2019-05-06T01:14:56.911Z,72.41
2019-05-06T01:16:01.090Z,71.63
2019-05-06T01:17:05.142Z,71.49
2019-05-06T01:18:09.350Z,71.06
2019-05-06T01:19:14.154Z,71.36
2019-05-06T01:20:17.661Z,71.51
2019-05-06T01:21:23.665Z,71.72
2019-05-06T01:22:25.991Z,71.11
2019-05-06T01:23:30.128Z,71.52
2019-05-06T01:24:34.545Z,70.87
2019-05-06T01:25:38.405Z,71.76
2019-05-06T01:26:44.374Z,71.34
2019-05-06T01:27:46.863Z,71.55
2019-05-06T01:28:51.007Z,70.91
2019-05-06T01:29:55.145Z,72.28
2019-05-06T01:30:59.319Z,71.64
2019-05-06T01:32:03.746Z,71.42
2019-05-06T01:33:07.649Z,71.65
2019-05-06T01:34:13.749Z,72.49
2019-05-06T01:35:15.999Z,72.57
2019-05-06T01:36:20.167Z,72.19
2019-05-06T01:37:27.443Z,72.92
2019-05-06T01:38:28.430Z,73.47
2019-05-06T01:39:34.155Z,73.60
2019-05-06T01:40:36.765Z,73.84
2019-05-06T01:41:40.953Z,72.64
2019-05-06T01:42:45.182Z,73.93
2019-05-06T01:43:49.247Z,73.62
2019-05-06T01:44:53.929Z,72.72
2019-05-06T01:45:57.614Z,72.41
2019-05-06T01:47:03.667Z,72.08
2019-05-06T01:48:05.855Z,72.03
2019-05-06T01:49:10.039Z,72.05
2019-05-06T01:50:14.247Z,71.74
2019-05-06T01:51:18.282Z,71.98
2019-05-06T01:52:24.068Z,71.65
2019-05-06T01:53:26.706Z,71.39
2019-05-06T01:54:30.860Z,71.86
2019-05-06T01:55:35.037Z,71.74
2019-05-06T01:56:39.248Z,71.36
2019-05-06T01:57:44.444Z,72.42
2019-05-06T01:58:47.588Z,73.51
2019-05-06T01:59:53.424Z,74.47
2019-05-06T02:00:55.952Z,73.51
2019-05-06T02:02:01.278Z,74.40
2019-05-06T02:03:04.321Z,75.02
2019-05-06T02:04:08.503Z,74.12
2019-05-06T02:05:13.797Z,73.56
2019-05-06T02:06:16.811Z,73.20
2019-05-06T02:07:20.962Z,73.26
2019-05-06T02:08:25.132Z,72.82
2019-05-06T02:09:29.246Z,73.32
2019-05-06T02:10:34.962Z,74.37
2019-05-06T02:11:37.605Z,74.42
2019-05-06T02:12:41.820Z,75.28
2019-05-06T02:13:45.931Z,75.53
2019-05-06T02:14:50.114Z,76.06
2019-05-06T02:15:54.813Z,75.12
2019-05-06T02:16:58.437Z,75.44
2019-05-06T02:18:04.092Z,76.37
2019-05-06T02:19:06.811Z,76.89
2019-05-06T02:20:10.951Z,75.24
2019-05-06T02:21:15.103Z,74.70
2019-05-06T02:22:19.248Z,73.96
2019-05-06T02:23:24.188Z,74.02
2019-05-06T02:24:27.629Z,74.54
2019-05-06T02:25:34.025Z,75.06
2019-05-06T02:26:35.977Z,74.32
2019-05-06T02:27:40.128Z,74.61
2019-05-06T02:28:44.307Z,73.60
2019-05-06T02:29:48.490Z,73.28
2019-05-06T02:30:54.813Z,74.28
2019-05-06T02:32:16.082Z,75.05
2019-05-06T02:33:00.953Z,74.58
2019-05-06T02:34:05.377Z,75.13
2019-05-06T02:35:09.289Z,74.95
2019-05-06T02:36:14.926Z,74.03
2019-05-06T02:37:17.772Z,74.12
2019-05-06T02:38:23.415Z,73.78
2019-05-06T02:39:26.111Z,75.26
2019-05-06T02:40:33.006Z,74.36
2019-05-06T02:41:34.384Z,74.53
2019-05-06T02:42:38.550Z,75.54
2019-05-06T02:43:43.554Z,75.28
2019-05-06T02:44:46.909Z,74.47
2019-05-06T02:45:53.126Z,74.39
2019-05-06T02:46:55.205Z,73.67
2019-05-06T02:47:59.239Z,74.62
2019-05-06T02:49:04.047Z,73.69
2019-05-06T02:50:07.726Z,74.00
2019-05-06T02:51:13.326Z,73.34
2019-05-06T02:52:16.114Z,73.74
2019-05-06T02:53:20.298Z,73.66
2019-05-06T02:54:24.463Z,75.04
2019-05-06T02:55:32.550Z,74.26
2019-05-06T02:56:33.421Z,75.33
2019-05-06T02:57:37.010Z,74.58
2019-05-06T02:58:43.698Z,75.02
2019-05-06T02:59:45.470Z,76.20
2019-05-06T03:00:49.639Z,76.70
2019-05-06T03:01:54.198Z,76.87
2019-05-06T03:02:57.927Z,76.58
2019-05-06T03:04:04.464Z,75.40
2019-05-06T03:05:06.368Z,75.48
2019-05-06T03:06:13.171Z,74.79
2019-05-06T03:07:14.818Z,74.83
2019-05-06T03:08:18.848Z,74.25
2019-05-06T03:09:23.474Z,75.38
2019-05-06T03:10:27.243Z,75.26
2019-05-06T03:11:33.177Z,73.98
2019-05-06T03:12:35.673Z,73.78
2019-05-06T03:13:39.797Z,75.42
2019-05-06T03:14:43.972Z,74.65
2019-05-06T03:15:48.263Z,73.99
2019-05-06T03:16:53.836Z,74.02
2019-05-06T03:17:56.561Z,73.82
2019-05-06T03:19:03.931Z,74.04
2019-05-06T03:20:04.949Z,73.62
2019-05-06T03:21:09.101Z,74.54
2019-05-06T03:22:13.483Z,73.72
2019-05-06T03:23:17.414Z,73.97
2019-05-06T03:24:23.642Z,73.38
2019-05-06T03:25:25.784Z,73.81
2019-05-06T03:26:32.920Z,73.95
2019-05-06T03:27:34.109Z,74.06
2019-05-06T03:28:38.337Z,73.74
2019-05-06T03:29:44.540Z,73.33
2019-05-06T03:30:46.760Z,73.40
2019-05-06T03:31:56.026Z,73.59
2019-05-06T03:34:22.074Z,72.99
2019-05-06T03:35:25.070Z,73.81
2019-05-06T03:36:18.620Z,73.92
2019-05-06T03:37:16.740Z,73.97
2019-05-06T03:38:16.078Z,73.65
2019-05-06T03:39:23.099Z,74.19
2019-05-06T03:40:24.381Z,73.37
2019-05-06T03:41:28.549Z,73.53
2019-05-06T03:42:33.420Z,73.53
2019-05-06T03:43:36.870Z,73.25
2019-05-06T03:44:43.531Z,72.97
2019-05-06T03:45:45.303Z,73.48
2019-05-06T03:46:49.476Z,73.79
2019-05-06T03:47:54.469Z,73.37
2019-05-06T03:48:57.933Z,73.10
2019-05-06T03:50:04.651Z,73.56
2019-05-06T03:51:06.274Z,73.32
2019-05-06T03:52:13.489Z,73.73
2019-05-06T03:53:14.750Z,73.34
2019-05-06T03:54:18.845Z,72.95
2019-05-06T03:55:23.498Z,73.53
2019-05-06T03:56:27.305Z,73.75
2019-05-06T03:57:35.398Z,73.48
2019-05-06T03:58:35.575Z,73.70
2019-05-06T03:59:39.731Z,73.57
2019-05-06T04:00:43.936Z,73.32
2019-05-06T04:01:48.109Z,73.72
2019-05-06T04:02:53.608Z,73.19
2019-05-06T04:03:57.379Z,72.86
2019-05-06T04:05:03.619Z,72.84
2019-05-06T04:06:04.909Z,73.15
2019-05-06T04:07:09.012Z,72.69
2019-05-06T04:08:13.267Z,73.34
2019-05-06T04:09:17.379Z,72.70
2019-05-06T04:10:22.830Z,73.23
2019-05-06T04:11:25.745Z,72.39
2019-05-06T04:12:32.905Z,72.26
2019-05-06T04:13:34.069Z,72.15
2019-05-06T04:14:38.328Z,72.63
2019-05-06T04:15:43.469Z,72.36
2019-05-06T04:16:46.572Z,72.69
2019-05-06T04:17:53.550Z,73.16
2019-05-06T04:18:54.960Z,72.66
2019-05-06T04:19:59.196Z,73.17
2019-05-06T04:21:03.836Z,72.59
2019-05-06T04:22:07.558Z,72.75
2019-05-06T04:23:13.403Z,72.92
2019-05-06T04:24:15.870Z,73.32
2019-05-06T04:25:23.172Z,73.10
2019-05-06T04:26:24.177Z,73.03
2019-05-06T04:27:28.439Z,72.55
2019-05-06T04:28:34.206Z,72.36
2019-05-06T04:29:36.761Z,72.49
2019-05-06T04:30:42.915Z,72.91
2019-05-06T04:31:45.089Z,72.71
2019-05-06T04:32:49.246Z,72.51
2019-05-06T04:34:08.462Z,72.76
2019-05-06T04:34:57.599Z,73.49
2019-05-06T04:36:03.688Z,73.32
2019-05-06T04:37:06.051Z,72.97
2019-05-06T04:38:10.197Z,73.43
2019-05-06T04:39:14.454Z,73.10
2019-05-06T04:40:18.588Z,72.81
2019-05-06T04:41:26.492Z,73.09
2019-05-06T04:42:27.195Z,73.01
2019-05-06T04:43:33.767Z,73.80
2019-05-06T04:44:35.333Z,73.30
2019-05-06T04:45:39.506Z,73.54
2019-05-06T04:46:44.475Z,74.06
2019-05-06T04:47:47.880Z,73.92
2019-05-06T04:48:53.867Z,73.78
2019-05-06T04:49:56.294Z,73.72
2019-05-06T04:51:03.698Z,74.03
2019-05-06T04:52:06.652Z,73.95
2019-05-06T04:53:13.456Z,73.28
2019-05-06T04:54:15.067Z,73.27
2019-05-06T04:55:19.207Z,73.01
2019-05-06T04:56:23.897Z,73.35
2019-05-06T04:57:27.636Z,73.65
2019-05-06T04:58:33.505Z,73.66
2019-05-06T04:59:36.036Z,73.64
2019-05-06T05:00:40.201Z,73.75
2019-05-06T05:01:45.461Z,73.52
2019-05-06T05:02:48.595Z,73.37
2019-05-06T05:03:53.916Z,73.14
2019-05-06T05:04:57.018Z,73.43
2019-05-06T05:06:02.926Z,73.60
2019-05-06T05:07:05.372Z,73.99
2019-05-06T05:08:09.625Z,74.20
2019-05-06T05:09:17.087Z,74.09
2019-05-06T05:10:17.951Z,74.02
2019-05-06T05:11:22.746Z,74.33
2019-05-06T05:12:26.384Z,73.77
2019-05-06T05:13:32.969Z,73.56
2019-05-06T05:14:34.737Z,73.84
2019-05-06T05:15:38.974Z,73.79
2019-05-06T05:16:43.226Z,73.74
2019-05-06T05:17:47.394Z,73.90
2019-05-06T05:18:53.068Z,74.12
2019-05-06T05:19:55.758Z,73.67
2019-05-06T05:20:59.969Z,73.52
2019-05-06T05:22:04.100Z,73.20
2019-05-06T05:23:08.356Z,73.73
2019-05-06T05:24:12.516Z,73.31
2019-05-06T05:25:16.698Z,73.34
2019-05-06T05:26:22.542Z,73.33
2019-05-06T05:27:24.983Z,73.06
2019-05-06T05:28:29.241Z,73.47
2019-05-06T05:29:33.512Z,73.38
2019-05-06T05:30:37.558Z,72.95
2019-05-06T05:31:43.662Z,72.97
2019-05-06T05:32:46.082Z,72.80
2019-05-06T05:33:52.454Z,73.28
2019-05-06T05:34:54.612Z,73.28
2019-05-06T05:35:58.759Z,73.26
2019-05-06T05:37:03.149Z,72.88
2019-05-06T05:38:07.260Z,72.76
2019-05-06T05:39:12.537Z,71.18
2019-05-06T05:40:15.653Z,70.42
2019-05-06T05:41:19.946Z,69.02
2019-05-06T05:42:24.102Z,66.87
2019-05-06T05:43:28.500Z,67.77
2019-05-06T05:44:32.904Z,66.82
2019-05-06T05:45:37.157Z,64.79
2019-05-06T05:46:43.696Z,62.34
2019-05-06T05:47:45.797Z,62.92
2019-05-06T05:48:51.961Z,63.93
2019-05-06T05:49:54.324Z,61.24
2019-05-06T05:50:58.486Z,62.11
2019-05-06T05:52:03.537Z,62.53
2019-05-06T05:53:07.061Z,62.54
2019-05-06T05:54:12.471Z,62.46
2019-05-06T05:55:15.532Z,62.99
2019-05-06T05:56:19.827Z,63.44
2019-05-06T05:57:24.013Z,63.58
2019-05-06T05:58:28.244Z,64.18
2019-05-06T05:59:33.013Z,64.75
2019-05-06T06:00:36.723Z,65.29
2019-05-06T06:01:43.283Z,65.60
2019-05-06T06:02:45.198Z,65.99
2019-05-06T06:03:49.488Z,66.39
2019-05-06T06:04:57.548Z,66.76
2019-05-06T06:05:57.885Z,67.02
2019-05-06T06:07:02.707Z,67.24
2019-05-06T06:08:06.418Z,67.48
2019-05-06T06:09:12.589Z,67.93
2019-05-06T06:10:14.954Z,67.86
2019-05-06T06:11:19.125Z,67.98
2019-05-06T06:12:23.329Z,68.53
2019-05-06T06:13:27.633Z,68.50
2019-05-06T06:14:33.182Z,68.68
2019-05-06T06:15:36.132Z,68.84
2019-05-06T06:16:42.245Z,68.83
2019-05-06T06:17:44.706Z,69.10
2019-05-06T06:18:48.951Z,68.94
2019-05-06T06:19:53.425Z,69.31
2019-05-06T06:20:57.361Z,69.33
2019-05-06T06:22:02.705Z,69.08
2019-05-06T06:23:05.873Z,69.07
2019-05-06T06:24:09.946Z,69.78
2019-05-06T06:25:14.378Z,69.30
2019-05-06T06:26:22.648Z,69.35
2019-05-06T06:27:24.869Z,70.58
2019-05-06T06:28:29.039Z,69.78
2019-05-06T06:29:33.353Z,69.22
2019-05-06T06:30:37.657Z,68.91
2019-05-06T06:31:42.768Z,68.60
2019-05-06T06:32:46.064Z,68.55
2019-05-06T06:33:52.829Z,68.44
2019-05-06T06:35:07.419Z,68.50
2019-05-06T06:35:58.785Z,68.77
2019-05-06T06:37:02.976Z,68.57
2019-05-06T06:38:07.219Z,68.60
2019-05-06T06:39:12.527Z,69.01
2019-05-06T06:40:15.750Z,69.28
2019-05-06T06:41:19.945Z,69.08
2019-05-06T06:42:24.203Z,69.41
2019-05-06T06:43:28.444Z,69.02
2019-05-06T06:44:33.170Z,69.05
2019-05-06T06:45:36.974Z,69.06
2019-05-06T06:46:42.902Z,69.00
2019-05-06T06:47:45.457Z,69.10
2019-05-06T06:48:49.661Z,69.40
2019-05-06T06:49:53.881Z,69.23
2019-05-06T06:50:58.137Z,69.30
2019-05-06T06:52:02.972Z,69.22
2019-05-06T06:53:06.542Z,69.18
2019-05-06T06:54:12.351Z,69.10
2019-05-06T06:55:15.008Z,69.09
2019-05-06T06:56:19.270Z,69.20
2019-05-06T06:57:23.459Z,69.05
2019-05-06T06:58:27.750Z,69.49
2019-05-06T06:59:31.950Z,69.42
2019-05-06T07:00:36.185Z,69.16
2019-05-06T07:01:42.318Z,69.12
2019-05-06T07:02:44.755Z,68.78
2019-05-06T07:03:49.021Z,68.56
2019-05-06T07:04:53.170Z,67.89
2019-05-06T07:05:57.526Z,67.88
2019-05-06T07:07:02.957Z,67.93
2019-05-06T07:08:06.124Z,67.75
2019-05-06T07:09:12.435Z,68.08
2019-05-06T07:10:14.512Z,68.47
2019-05-06T07:11:18.801Z,68.13
2019-05-06T07:12:23.509Z,68.26
2019-05-06T07:13:27.338Z,68.17
2019-05-06T07:14:32.654Z,67.66
2019-05-06T07:15:35.939Z,67.88
2019-05-06T07:16:42.874Z,67.25
2019-05-06T07:17:44.441Z,67.30
2019-05-06T07:18:48.730Z,67.61
2019-05-06T07:19:53.055Z,67.26
2019-05-06T07:20:57.274Z,67.33
2019-05-06T07:22:02.903Z,67.06
2019-05-06T07:23:05.720Z,66.68
2019-05-06T07:24:09.975Z,66.36
2019-05-06T07:25:14.219Z,66.37
2019-05-06T07:26:18.437Z,66.64
2019-05-06T07:27:22.939Z,66.33
2019-05-06T07:28:27.008Z,66.14
2019-05-06T07:29:32.768Z,65.94
2019-05-06T07:30:35.567Z,66.11
2019-05-06T07:31:39.833Z,65.71
2019-05-06T07:32:44.062Z,65.69
2019-05-06T07:33:48.276Z,65.75
2019-05-06T07:34:53.284Z,65.91
2019-05-06T07:35:56.885Z,65.77
2019-05-06T07:37:03.354Z,65.72
2019-05-06T07:38:05.454Z,65.38
2019-05-06T07:39:09.679Z,65.42
2019-05-06T07:40:13.881Z,65.28
2019-05-06T07:41:18.127Z,65.49
2019-05-06T07:42:22.857Z,65.74
2019-05-06T07:43:26.592Z,65.86
2019-05-06T07:44:33.197Z,66.22
2019-05-06T07:45:35.105Z,66.02
2019-05-06T07:46:39.358Z,66.31
2019-05-06T07:47:43.595Z,66.16
2019-05-06T07:48:47.850Z,65.95
2019-05-06T07:49:53.137Z,65.82
2019-05-06T07:50:56.321Z,65.73
2019-05-06T07:52:02.740Z,66.00
2019-05-06T07:53:04.859Z,65.90
2019-05-06T07:54:09.181Z,65.77
2019-05-06T07:55:13.527Z,66.06
2019-05-06T07:56:17.754Z,66.50
2019-05-06T07:57:22.187Z,65.74
2019-05-06T07:58:26.447Z,64.85
2019-05-06T07:59:33.265Z,64.74
2019-05-06T08:00:34.948Z,63.62
2019-05-06T08:01:39.256Z,64.12
2019-05-06T08:02:43.539Z,64.21
2019-05-06T08:03:47.864Z,64.59
2019-05-06T08:04:53.138Z,64.35
2019-05-06T08:05:58.814Z,64.30
2019-05-06T08:07:02.939Z,64.14
2019-05-06T08:08:04.933Z,63.83
2019-05-06T08:09:09.250Z,63.45
2019-05-06T08:10:13.708Z,61.67
2019-05-06T08:11:17.860Z,61.80
2019-05-06T08:12:22.489Z,61.84
2019-05-06T08:13:26.448Z,62.06
2019-05-06T08:14:32.906Z,62.58
2019-05-06T08:15:34.966Z,62.57
2019-05-06T08:16:41.910Z,62.66
2019-05-06T08:17:43.473Z,62.13
2019-05-06T08:18:47.840Z,62.80
2019-05-06T08:19:52.959Z,63.03
2019-05-06T08:20:56.226Z,63.45
2019-05-06T08:22:02.648Z,63.46
2019-05-06T08:23:04.831Z,63.03
2019-05-06T08:24:09.124Z,62.79
2019-05-06T08:25:13.343Z,62.94
2019-05-06T08:26:18.098Z,63.14
2019-05-06T08:27:22.722Z,63.48
2019-05-06T08:28:37.548Z,63.36
2019-05-06T08:29:30.349Z,63.37
2019-05-06T08:30:34.700Z,63.63
2019-05-06T08:31:38.909Z,63.54
2019-05-06T08:32:43.085Z,63.59
2019-05-06T08:33:47.455Z,63.75
2019-05-06T08:34:52.384Z,63.84
2019-05-06T08:36:08.864Z,63.99
2019-05-06T08:37:02.343Z,64.31
2019-05-06T08:38:04.520Z,64.01
2019-05-06T08:39:08.618Z,63.99
2019-05-06T08:40:12.937Z,63.79
2019-05-06T08:41:17.238Z,63.71
2019-05-06T08:42:22.460Z,63.98
2019-05-06T08:43:25.897Z,63.99
2019-05-06T08:44:32.270Z,63.65
2019-05-06T08:45:34.455Z,63.85
2019-05-06T08:46:38.694Z,63.70
2019-05-06T08:47:42.986Z,63.87
2019-05-06T08:48:47.262Z,63.97
2019-05-06T08:49:52.787Z,63.98
2019-05-06T08:50:55.794Z,64.07
2019-05-06T08:52:02.243Z,63.63
2019-05-06T08:53:05.046Z,63.03
2019-05-06T08:54:08.637Z,63.10
2019-05-06T08:55:12.815Z,62.47
2019-05-06T08:56:17.169Z,61.75
2019-05-06T08:57:22.787Z,62.12
2019-05-06T08:58:25.627Z,62.18
2019-05-06T08:59:32.056Z,62.61
2019-05-06T09:00:34.115Z,63.00
2019-05-06T09:01:38.408Z,62.69
2019-05-06T09:02:46.046Z,62.68
2019-05-06T09:03:46.955Z,63.00
2019-05-06T09:04:51.813Z,61.30
2019-05-06T09:05:55.490Z,61.96
2019-05-06T09:06:59.727Z,62.09
2019-05-06T09:08:04.166Z,61.99
2019-05-06T09:09:08.300Z,61.07
2019-05-06T09:10:13.147Z,61.01
2019-05-06T09:11:16.828Z,61.39
2019-05-06T09:12:22.355Z,61.53
2019-05-06T09:13:25.451Z,61.46
2019-05-06T09:14:29.683Z,61.56
2019-05-06T09:15:34.016Z,61.63
2019-05-06T09:16:38.366Z,61.39
2019-05-06T09:17:42.634Z,61.23
2019-05-06T09:18:46.831Z,61.63
2019-05-06T09:19:53.359Z,61.22
2019-05-06T09:20:55.314Z,61.04
2019-05-06T09:21:59.688Z,60.97
2019-05-06T09:23:04.701Z,61.12
2019-05-06T09:24:08.258Z,60.72
2019-05-06T09:25:12.919Z,61.01
2019-05-06T09:26:16.876Z,61.54
2019-05-06T09:27:22.622Z,61.29
2019-05-06T09:28:25.341Z,61.17
2019-05-06T09:29:29.612Z,61.01
2019-05-06T09:30:33.973Z,60.29
2019-05-06T09:31:38.127Z,61.25
2019-05-06T09:32:43.023Z,61.44
2019-05-06T09:33:46.788Z,61.02
2019-05-06T09:34:52.687Z,60.50
2019-05-06T09:35:55.337Z,60.18
2019-05-06T09:37:02.953Z,60.06
2019-05-06T09:38:04.010Z,60.71
2019-05-06T09:39:08.300Z,60.31
2019-05-06T09:40:12.815Z,60.29
2019-05-06T09:41:16.987Z,60.90
2019-05-06T09:42:23.062Z,62.26
2019-05-06T09:43:25.514Z,62.01
2019-05-06T09:44:29.692Z,64.07
2019-05-06T09:45:34.029Z,62.85
2019-05-06T09:46:38.227Z,62.79
2019-05-06T09:47:42.695Z,62.73
2019-05-06T09:48:46.871Z,63.67
2019-05-06T09:49:53.054Z,64.72
2019-05-06T09:50:55.471Z,64.53
2019-05-06T09:52:02.322Z,64.14
2019-05-06T09:53:03.904Z,63.96
2019-05-06T09:54:08.246Z,65.27
2019-05-06T09:55:12.915Z,65.35
2019-05-06T09:56:16.734Z,64.41
2019-05-06T09:57:22.085Z,64.41
2019-05-06T09:58:25.260Z,64.14
2019-05-06T09:59:29.545Z,63.73
2019-05-06T10:00:33.796Z,64.33
2019-05-06T10:01:38.073Z,64.81
2019-05-06T10:02:42.932Z,65.62
2019-05-06T10:03:46.487Z,64.35
2019-05-06T10:04:52.234Z,63.88
2019-05-06T10:05:55.191Z,64.07
2019-05-06T10:07:00.053Z,63.72
2019-05-06T10:08:03.699Z,63.35
2019-05-06T10:09:07.936Z,62.88
2019-05-06T10:10:12.220Z,63.09
2019-05-06T10:11:16.581Z,63.25
2019-05-06T10:12:20.877Z,63.10
2019-05-06T10:13:25.099Z,61.97
2019-05-06T10:14:29.414Z,62.66
2019-05-06T10:15:33.696Z,62.01
2019-05-06T10:16:37.983Z,61.86
2019-05-06T10:17:42.875Z,61.59
2019-05-06T10:18:46.609Z,60.48
2019-05-06T10:19:50.910Z,61.35
2019-05-06T10:20:55.224Z,60.72
2019-05-06T10:21:59.474Z,60.83
2019-05-06T10:23:03.778Z,61.48
2019-05-06T10:24:08.103Z,59.76
2019-05-06T10:25:12.356Z,60.13
2019-05-06T10:26:16.635Z,59.11
2019-05-06T10:27:22.731Z,58.18
2019-05-06T10:28:25.246Z,58.85
2019-05-06T10:29:29.558Z,59.31
2019-05-06T10:30:33.856Z,59.34
2019-05-06T10:31:38.181Z,59.98
2019-05-06T10:32:42.772Z,60.04
2019-05-06T10:33:46.820Z,58.77
2019-05-06T10:34:52.634Z,57.55
2019-05-06T10:35:55.473Z,58.59
2019-05-06T10:37:11.692Z,57.74
2019-05-06T10:38:04.100Z,57.35
2019-05-06T10:39:08.473Z,57.73
2019-05-06T10:40:13.498Z,56.96
2019-05-06T10:41:17.102Z,56.85
2019-05-06T10:42:23.077Z,57.11
2019-05-06T10:43:25.738Z,56.02
2019-05-06T10:44:29.941Z,57.39
2019-05-06T10:45:34.271Z,57.21
2019-05-06T10:46:38.527Z,56.83
2019-05-06T10:47:42.913Z,57.05
2019-05-06T10:48:47.132Z,56.79
2019-05-06T10:49:52.955Z,55.67
2019-05-06T10:50:55.700Z,56.97
2019-05-06T10:52:02.139Z,57.14
2019-05-06T10:53:04.528Z,55.86
2019-05-06T10:54:08.732Z,55.81
2019-05-06T10:55:13.020Z,55.80
2019-05-06T10:56:17.421Z,56.87
2019-05-06T10:57:22.157Z,55.56
2019-05-06T10:58:26.053Z,54.35
2019-05-06T10:59:32.464Z,55.57
2019-05-06T11:00:34.730Z,55.36
2019-05-06T11:01:38.967Z,55.57
2019-05-06T11:02:43.310Z,55.47
2019-05-06T11:03:47.616Z,56.39
2019-05-06T11:04:52.961Z,54.74
2019-05-06T11:05:56.161Z,54.46
2019-05-06T11:07:00.452Z,55.80
2019-05-06T11:08:04.761Z,56.10
2019-05-06T11:09:09.081Z,55.80
2019-05-06T11:10:23.759Z,55.23
2019-05-06T11:11:32.654Z,54.56
2019-05-06T11:12:24.174Z,54.31
2019-05-06T11:13:28.529Z,53.90
2019-05-06T11:14:33.113Z,53.04
2019-05-06T11:15:37.041Z,54.13
2019-05-06T11:16:41.348Z,53.86
2019-05-06T11:17:45.767Z,54.57
2019-05-06T11:18:49.986Z,53.92
2019-05-06T11:19:54.300Z,54.44
2019-05-06T11:20:58.656Z,54.49
2019-05-06T11:22:03.628Z,55.15
2019-05-06T11:23:07.258Z,54.44
2019-05-06T11:24:12.286Z,54.83
2019-05-06T11:25:15.872Z,53.73
2019-05-06T11:26:20.265Z,53.45
2019-05-06T11:27:31.331Z,52.88
2019-05-06T11:28:28.889Z,52.83
2019-05-06T11:29:33.868Z,53.37
2019-05-06T11:30:37.434Z,51.30
2019-05-06T11:31:43.247Z,52.39
2019-05-06T11:32:46.091Z,52.18
2019-05-06T11:33:52.502Z,54.26
2019-05-06T11:34:54.677Z,53.13
2019-05-06T11:35:59.051Z,53.67
2019-05-06T11:37:03.379Z,53.27
2019-05-06T11:38:07.733Z,51.69
2019-05-06T11:39:14.257Z,51.92
2019-05-06T11:40:17.105Z,51.91
2019-05-06T11:41:23.215Z,52.59
2019-05-06T11:42:31.768Z,51.46
2019-05-06T11:43:29.261Z,51.11
2019-05-06T11:44:33.586Z,52.32
2019-05-06T11:45:37.884Z,53.28
2019-05-06T11:46:42.935Z,52.91
2019-05-06T11:47:46.642Z,52.24
2019-05-06T11:48:52.234Z,52.45
2019-05-06T11:49:56.262Z,51.34
2019-05-06T11:50:59.732Z,50.72
2019-05-06T11:52:04.056Z,51.76
2019-05-06T11:53:08.457Z,50.46
2019-05-06T11:54:17.465Z,50.10
2019-05-06T11:55:28.882Z,49.43
2019-05-06T11:56:23.037Z,49.33
2019-05-06T11:57:25.768Z,49.49
2019-05-06T11:58:30.192Z,50.02
2019-05-06T11:59:34.446Z,49.02
2019-05-06T12:00:38.811Z,50.11
2019-05-06T12:01:46.163Z,49.80
2019-05-06T12:02:49.639Z,49.52
2019-05-06T12:03:54.020Z,49.70
2019-05-06T12:04:58.418Z,47.73
2019-05-06T12:06:03.828Z,46.40
2019-05-06T12:07:11.123Z,49.42
2019-05-06T12:08:13.741Z,47.19
2019-05-06T12:09:17.255Z,47.04
2019-05-06T12:10:22.344Z,47.67
2019-05-06T12:11:24.762Z,47.73
2019-05-06T12:12:29.070Z,47.83
2019-05-06T12:13:33.826Z,48.35
2019-05-06T12:14:37.800Z,49.18
2019-05-06T12:15:42.226Z,49.19
2019-05-06T12:16:46.533Z,48.97
2019-05-06T12:17:50.884Z,48.55
2019-05-06T12:18:55.281Z,49.48
2019-05-06T12:19:59.615Z,48.42
2019-05-06T12:21:11.345Z,48.54
2019-05-06T12:22:08.372Z,49.36
2019-05-06T12:23:15.559Z,49.78
2019-05-06T12:24:17.080Z,50.56
2019-05-06T12:25:23.638Z,50.78
2019-05-06T12:26:25.733Z,51.16
2019-05-06T12:27:32.624Z,51.53
2019-05-06T12:28:34.383Z,51.46
2019-05-06T12:29:38.735Z,51.96
2019-05-06T12:30:43.159Z,52.39
2019-05-06T12:31:47.421Z,52.92
2019-05-06T12:32:52.678Z,53.03
2019-05-06T12:33:56.073Z,53.51
2019-05-06T12:35:00.387Z,53.78
2019-05-06T12:36:04.673Z,54.17
2019-05-06T12:37:09.016Z,55.16
2019-05-06T12:38:26.676Z,54.96
2019-05-06T12:39:19.675Z,54.79
2019-05-06T12:40:22.027Z,55.81
2019-05-06T12:41:26.336Z,54.99
2019-05-06T12:42:32.986Z,55.62
2019-05-06T12:43:35.040Z,55.54
2019-05-06T12:44:39.402Z,56.22
2019-05-06T12:45:43.799Z,56.17
2019-05-06T12:46:48.190Z,56.61
2019-05-06T12:47:53.375Z,56.58
2019-05-06T12:48:56.767Z,57.30
2019-05-06T12:50:02.787Z,56.53
2019-05-06T12:51:05.555Z,58.33
2019-05-06T12:52:12.233Z,58.37
2019-05-06T12:53:14.253Z,58.15
2019-05-06T12:54:18.602Z,57.97
2019-05-06T12:55:25.301Z,56.49
2019-05-06T12:56:27.297Z,54.48
2019-05-06T12:57:34.276Z,54.87
2019-05-06T12:58:36.013Z,54.97
2019-05-06T12:59:42.345Z,54.72
2019-05-06T13:00:45.151Z,53.73
2019-05-06T13:01:49.055Z,53.60
2019-05-06T13:02:53.501Z,52.50
2019-05-06T13:03:57.805Z,53.46
2019-05-06T13:05:04.066Z,53.81
2019-05-06T13:06:08.377Z,52.88
2019-05-06T13:07:11.052Z,53.59
2019-05-06T13:08:19.893Z,53.17
2019-05-06T13:09:19.768Z,53.30
2019-05-06T13:10:24.195Z,52.80
2019-05-06T13:11:28.601Z,52.67
2019-05-06T13:12:33.695Z,50.85
2019-05-06T13:13:37.259Z,52.27
2019-05-06T13:14:43.094Z,52.65
2019-05-06T13:15:46.097Z,52.44
2019-05-06T13:16:53.013Z,52.02
2019-05-06T13:17:54.900Z,52.50
2019-05-06T13:18:59.261Z,51.66
2019-05-06T13:20:03.694Z,52.02
2019-05-06T13:21:08.044Z,51.51
2019-05-06T13:22:13.461Z,51.21
2019-05-06T13:23:21.348Z,51.02
2019-05-06T13:24:22.848Z,51.64
2019-05-06T13:25:25.555Z,51.60
2019-05-06T13:26:32.388Z,51.50
2019-05-06T13:27:34.421Z,52.26
2019-05-06T13:28:38.754Z,51.63
2019-05-06T13:29:43.129Z,51.57
2019-05-06T13:30:47.640Z,52.02
2019-05-06T13:31:52.993Z,52.29
2019-05-06T13:32:56.329Z,53.21
2019-05-06T13:34:02.751Z,53.94
2019-05-06T13:35:05.070Z,53.60
2019-05-06T13:36:09.364Z,54.30
2019-05-06T13:37:13.709Z,55.55
2019-05-06T13:38:18.024Z,54.80
2019-05-06T13:39:23.700Z,55.13
2019-05-06T13:40:27.341Z,55.75
2019-05-06T13:41:32.711Z,56.17
2019-05-06T13:42:35.438Z,56.82
2019-05-06T13:43:39.906Z,55.99
2019-05-06T13:44:44.329Z,55.69
2019-05-06T13:45:48.667Z,55.34
2019-05-06T13:46:53.582Z,55.05
2019-05-06T13:47:57.482Z,55.21